Terminal Aerodrome Forecast
Issued by NWS Sterling, VA

Home | Current Version | Previous Version | Text Only | Print | Product List | Glossary On
Versions: 1 2 3 4 5 6 7 8 9 10 11 12 13 14 15 16 17 18 19 20 21
000
FTUS41 KLWX 191821 AAA
TAFCHO
TAF AMD
KCHO 191821Z 1918/2018 07012KT P6SM -RA OVC060
     FM192000 06012KT 3SM RA OVC015
     FM200000 05013KT 2SM +RA OVC008
     FM200400 06015KT 2SM RA OVC008 WS020/13035KT
     FM200700 14013KT 2SM -RA OVC008
     FM201000 19006KT P6SM OVC008
     FM201500 20009KT P6SM BKN090=

USA.gov is the U.S. government's official web portal to all federal, state and local government web resources and services.